createdAt,value
2019-03-29T00:02:15.103Z,53.70
2019-03-29T00:04:46.727Z,54.30
2019-03-29T00:07:18.006Z,53.90
2019-03-29T00:09:49.529Z,53.80
2019-03-29T00:12:21.077Z,53.90
2019-03-29T00:14:52.553Z,53.80
2019-03-29T00:17:23.961Z,53.90
2019-03-29T00:19:55.536Z,54.40
2019-03-29T00:22:27.410Z,53.90
2019-03-29T00:24:58.906Z,53.90
2019-03-29T00:27:30.430Z,53.90
2019-03-29T00:30:01.950Z,54.00
2019-03-29T00:32:33.398Z,54.20
2019-03-29T00:35:04.686Z,54.20
2019-03-29T00:37:36.279Z,54.10
2019-03-29T00:40:08.199Z,53.90
2019-03-29T00:42:39.645Z,53.90
2019-03-29T00:45:11.063Z,53.90
2019-03-29T00:47:42.676Z,54.30
2019-03-29T00:50:14.129Z,54.30
2019-03-29T00:52:45.752Z,54.70
2019-03-29T00:55:17.270Z,54.30
2019-03-29T00:57:48.695Z,54.50
2019-03-29T01:00:20.049Z,54.50
2019-03-29T01:02:51.421Z,54.80
2019-03-29T01:05:22.985Z,54.50
2019-03-29T01:08:07.044Z,54.60
2019-03-29T01:10:27.700Z,54.40
2019-03-29T01:12:59.050Z,54.50
2019-03-29T01:15:30.500Z,54.30
2019-03-29T01:18:01.907Z,54.00
2019-03-29T01:20:33.320Z,53.80
2019-03-29T01:23:04.699Z,54.00
2019-03-29T01:25:36.308Z,54.20
2019-03-29T01:28:07.904Z,54.20
2019-03-29T01:30:39.161Z,54.20
2019-03-29T01:33:10.750Z,54.30
2019-03-29T01:35:42.057Z,54.20
2019-03-29T01:38:21.634Z,54.20
2019-03-29T01:40:46.603Z,54.20
2019-03-29T01:43:18.210Z,54.10
2019-03-29T01:45:49.673Z,54.50
2019-03-29T01:48:21.002Z,54.00
2019-03-29T01:50:52.432Z,54.00
2019-03-29T01:53:33.014Z,54.00
2019-03-29T01:56:04.464Z,54.00
2019-03-29T01:58:35.894Z,54.00
2019-03-29T02:01:07.506Z,53.90
2019-03-29T02:03:39.270Z,53.80
2019-03-29T02:06:11.510Z,53.90
2019-03-29T02:08:43.516Z,53.60
2019-03-29T02:11:15.169Z,53.50
2019-03-29T02:13:46.723Z,53.70
2019-03-29T02:16:18.065Z,53.70
2019-03-29T02:18:49.620Z,53.80
2019-03-29T02:21:20.976Z,53.80
2019-03-29T02:23:52.293Z,53.80
2019-03-29T02:26:23.566Z,53.70
2019-03-29T02:28:55.049Z,53.70
2019-03-29T02:31:28.837Z,53.70
2019-03-29T02:34:00.067Z,53.70
2019-03-29T02:36:31.736Z,53.70
2019-03-29T02:39:03.243Z,53.70
2019-03-29T02:41:34.765Z,53.70
2019-03-29T02:44:06.578Z,53.60
2019-03-29T02:46:39.160Z,53.70
2019-03-29T02:49:12.717Z,53.60
2019-03-29T02:51:43.780Z,53.60
2019-03-29T02:54:15.182Z,53.70
2019-03-29T02:56:46.530Z,53.60
2019-03-29T02:59:18.036Z,54.00
2019-03-29T03:01:49.387Z,53.20
2019-03-29T03:04:20.902Z,53.50
2019-03-29T03:06:52.514Z,53.50
2019-03-29T03:09:24.057Z,53.40
2019-03-29T03:11:55.613Z,53.40
2019-03-29T03:14:27.126Z,53.40
2019-03-29T03:16:58.507Z,53.30
2019-03-29T03:19:29.933Z,53.40
2019-03-29T03:22:01.331Z,53.30
2019-03-29T03:24:32.905Z,53.30
2019-03-29T03:27:04.576Z,53.30
2019-03-29T03:29:36.022Z,53.30
2019-03-29T03:32:07.385Z,53.30
2019-03-29T03:34:38.743Z,53.30
2019-03-29T03:37:10.096Z,53.30
2019-03-29T03:39:41.571Z,53.20
2019-03-29T03:42:12.881Z,53.20
2019-03-29T03:44:44.365Z,53.20
2019-03-29T03:47:15.807Z,53.20
2019-03-29T03:49:47.173Z,53.30
2019-03-29T03:52:18.637Z,53.30
2019-03-29T03:54:50.142Z,53.30
2019-03-29T03:57:21.807Z,53.20
2019-03-29T03:59:53.322Z,53.20
2019-03-29T04:02:24.699Z,53.10
2019-03-29T04:04:56.333Z,53.00
2019-03-29T04:07:27.864Z,52.90
2019-03-29T04:09:59.307Z,53.00
2019-03-29T04:12:30.714Z,52.90
2019-03-29T04:15:02.185Z,52.90
2019-03-29T04:17:33.663Z,52.90
2019-03-29T04:20:05.142Z,53.00
2019-03-29T04:22:36.771Z,53.00
2019-03-29T04:25:08.222Z,53.00
2019-03-29T04:27:39.616Z,53.00
2019-03-29T04:30:11.037Z,53.00
2019-03-29T04:32:42.269Z,53.00
2019-03-29T04:35:13.825Z,53.00
2019-03-29T04:37:45.033Z,53.00
2019-03-29T04:40:16.265Z,52.90
2019-03-29T04:42:47.780Z,53.00
2019-03-29T04:45:19.364Z,53.00
2019-03-29T04:47:50.794Z,53.00
2019-03-29T04:50:22.296Z,53.00
2019-03-29T04:52:53.726Z,52.80
2019-03-29T04:55:25.103Z,52.80
2019-03-29T04:57:58.189Z,52.70
2019-03-29T05:00:29.756Z,52.70
2019-03-29T05:03:01.215Z,52.70
2019-03-29T05:05:32.891Z,52.60
2019-03-29T05:08:04.230Z,52.60
2019-03-29T05:10:35.862Z,52.50
2019-03-29T05:13:07.379Z,52.60
2019-03-29T05:15:38.931Z,52.50
2019-03-29T05:18:10.971Z,52.60
2019-03-29T05:20:42.752Z,52.60
2019-03-29T05:23:14.270Z,52.50
2019-03-29T05:25:45.602Z,52.60
2019-03-29T05:28:16.965Z,52.50
2019-03-29T05:30:48.616Z,53.10
2019-03-29T05:33:20.095Z,52.50
2019-03-29T05:35:51.818Z,52.70
2019-03-29T05:38:23.164Z,52.70
2019-03-29T05:40:54.668Z,52.80
2019-03-29T05:43:26.173Z,52.70
2019-03-29T05:45:57.444Z,52.70
2019-03-29T05:48:28.918Z,52.70
2019-03-29T05:51:01.270Z,52.60
2019-03-29T05:53:32.781Z,52.60
2019-03-29T05:56:04.285Z,52.60
2019-03-29T05:58:35.626Z,52.50
2019-03-29T06:01:07.071Z,52.70
2019-03-29T06:03:38.595Z,52.50
2019-03-29T06:06:09.949Z,52.50
2019-03-29T06:08:41.235Z,52.50
2019-03-29T06:11:12.546Z,52.40
2019-03-29T06:13:44.241Z,52.30
2019-03-29T06:16:15.983Z,52.30
2019-03-29T06:18:47.578Z,52.20
2019-03-29T06:21:19.048Z,52.20
2019-03-29T06:23:50.654Z,52.20
2019-03-29T06:26:22.102Z,52.20
2019-03-29T06:28:53.986Z,52.30
2019-03-29T06:31:25.514Z,52.40
2019-03-29T06:33:56.993Z,52.40
2019-03-29T06:36:28.359Z,52.30
2019-03-29T06:39:00.037Z,52.20
2019-03-29T06:41:31.705Z,52.10
2019-03-29T06:44:03.138Z,52.10
2019-03-29T06:46:34.558Z,51.90
2019-03-29T06:49:05.785Z,52.40
2019-03-29T06:51:37.423Z,53.50
2019-03-29T06:54:08.749Z,53.00
2019-03-29T06:56:40.177Z,53.20
2019-03-29T06:59:11.728Z,53.40
2019-03-29T07:01:46.289Z,54.60
2019-03-29T07:04:16.685Z,56.80
2019-03-29T07:06:48.344Z,56.90
2019-03-29T07:09:20.509Z,56.20
2019-03-29T07:11:52.260Z,56.10
2019-03-29T07:14:24.233Z,57.30
2019-03-29T07:16:56.072Z,57.00
2019-03-29T07:19:28.091Z,55.60
2019-03-29T07:22:00.012Z,55.30
2019-03-29T07:24:32.215Z,56.30
2019-03-29T07:27:04.215Z,55.40
2019-03-29T07:29:41.379Z,55.10
2019-03-29T07:32:13.712Z,54.80
2019-03-29T07:34:48.950Z,54.60
2019-03-29T07:37:19.321Z,54.10
2019-03-29T07:39:53.844Z,53.80
2019-03-29T07:42:25.596Z,53.40
2019-03-29T07:44:57.668Z,53.10
2019-03-29T07:47:29.773Z,54.00
2019-03-29T07:50:01.876Z,53.10
2019-03-29T07:52:33.857Z,53.10
2019-03-29T07:55:05.613Z,53.10
2019-03-29T07:57:37.363Z,53.10
2019-03-29T08:00:09.296Z,53.20
2019-03-29T08:02:41.170Z,53.10
2019-03-29T08:05:13.215Z,53.20
2019-03-29T08:07:45.275Z,53.30
2019-03-29T08:10:25.848Z,53.10
2019-03-29T08:12:51.146Z,53.20
2019-03-29T08:15:23.132Z,53.00
2019-03-29T08:17:55.503Z,52.60
2019-03-29T08:20:44.409Z,53.10
2019-03-29T08:23:01.220Z,52.70
2019-03-29T08:25:33.351Z,52.30
2019-03-29T08:28:05.746Z,51.90
2019-03-29T08:30:38.072Z,51.60
2019-03-29T08:33:10.120Z,51.50
2019-03-29T08:35:42.309Z,51.30
2019-03-29T08:38:14.101Z,51.10
2019-03-29T08:40:46.225Z,51.10
2019-03-29T08:43:18.358Z,51.00
2019-03-29T08:45:53.416Z,51.00
2019-03-29T08:48:25.655Z,50.70
2019-03-29T08:50:57.804Z,50.80
2019-03-29T08:53:29.554Z,50.90
2019-03-29T08:56:01.456Z,51.00
2019-03-29T08:58:33.610Z,51.20
2019-03-29T09:01:05.609Z,51.60
2019-03-29T09:03:37.653Z,51.90
2019-03-29T09:06:09.832Z,51.90
2019-03-29T09:08:42.097Z,51.90
2019-03-29T09:11:13.744Z,52.40
2019-03-29T09:13:45.100Z,51.60
2019-03-29T09:16:16.848Z,51.40
2019-03-29T09:18:48.507Z,51.60
2019-03-29T09:21:19.868Z,51.50
2019-03-29T09:23:51.419Z,51.90
2019-03-29T09:26:23.013Z,52.00
2019-03-29T09:28:54.872Z,52.00
2019-03-29T09:31:26.841Z,52.10
2019-03-29T09:33:58.829Z,52.20
2019-03-29T09:36:30.405Z,52.10
2019-03-29T09:39:01.854Z,52.10
2019-03-29T09:41:33.442Z,52.50
2019-03-29T09:44:05.411Z,51.50
2019-03-29T09:46:36.852Z,50.90
2019-03-29T09:49:08.603Z,50.60
2019-03-29T09:51:40.045Z,51.10
2019-03-29T09:54:11.644Z,50.60
2019-03-29T09:56:48.091Z,50.40
2019-03-29T09:59:16.732Z,50.40
2019-03-29T10:01:48.165Z,49.80
2019-03-29T10:04:19.825Z,50.20
2019-03-29T10:06:51.572Z,50.50
2019-03-29T10:09:23.061Z,50.40
2019-03-29T10:11:54.406Z,50.30
2019-03-29T10:14:25.875Z,50.00
2019-03-29T10:16:57.331Z,58.50
2019-03-29T10:19:29.188Z,56.20
2019-03-29T10:22:00.689Z,54.90
2019-03-29T10:24:32.198Z,54.90
2019-03-29T10:27:03.885Z,53.10
2019-03-29T10:29:35.451Z,53.00
2019-03-29T10:32:09.473Z,52.90
2019-03-29T10:34:39.898Z,53.20
2019-03-29T10:37:11.202Z,52.30
2019-03-29T10:39:42.786Z,52.20
2019-03-29T10:42:14.398Z,49.50
2019-03-29T10:44:49.144Z,51.90
2019-03-29T10:47:18.689Z,51.60
2019-03-29T10:49:50.394Z,51.20
2019-03-29T10:52:22.060Z,51.20
2019-03-29T10:54:53.498Z,50.70
2019-03-29T10:57:24.816Z,50.60
2019-03-29T10:59:56.366Z,50.30
2019-03-29T11:02:27.690Z,50.60
2019-03-29T11:04:59.135Z,51.10
2019-03-29T11:07:30.767Z,51.70
2019-03-29T11:10:02.205Z,52.10
2019-03-29T11:12:33.722Z,51.70
2019-03-29T11:15:06.790Z,51.00
2019-03-29T11:17:38.500Z,51.30
2019-03-29T11:20:10.213Z,50.50
2019-03-29T11:22:41.573Z,50.80
2019-03-29T11:25:12.913Z,51.40
2019-03-29T11:27:44.327Z,51.50
2019-03-29T11:30:15.774Z,52.00
2019-03-29T11:32:47.293Z,51.40
2019-03-29T11:35:18.742Z,51.80
2019-03-29T11:37:50.280Z,52.10
2019-03-29T11:40:21.773Z,52.40
2019-03-29T11:42:53.548Z,51.60
2019-03-29T11:45:25.036Z,51.20
2019-03-29T11:48:07.290Z,51.30
2019-03-29T11:50:29.743Z,51.80
2019-03-29T11:53:01.389Z,52.10
2019-03-29T11:55:32.726Z,51.50
2019-03-29T11:58:04.378Z,51.20
2019-03-29T12:00:39.599Z,51.10
2019-03-29T12:03:13.203Z,50.90
2019-03-29T12:05:47.401Z,50.90
2019-03-29T12:08:20.906Z,50.90
2019-03-29T12:10:54.663Z,50.90
2019-03-29T12:13:40.503Z,50.90
2019-03-29T12:16:03.157Z,50.90
2019-03-29T12:18:34.632Z,50.60
2019-03-29T12:21:06.307Z,50.40
2019-03-29T12:23:37.772Z,50.30
2019-03-29T12:26:09.193Z,51.00
2019-03-29T12:28:40.639Z,50.60
2019-03-29T12:31:12.013Z,50.60
2019-03-29T12:33:43.431Z,50.30
2019-03-29T12:36:14.845Z,50.70
2019-03-29T12:38:46.176Z,50.50
2019-03-29T12:41:17.800Z,50.80
2019-03-29T12:43:55.497Z,50.90
2019-03-29T12:46:22.205Z,50.80
2019-03-29T12:48:53.649Z,50.80
2019-03-29T12:51:25.285Z,51.00
2019-03-29T12:53:56.759Z,50.10
2019-03-29T12:56:28.356Z,49.80
2019-03-29T12:58:59.861Z,49.70
2019-03-29T13:01:39.403Z,49.70
2019-03-29T13:04:04.614Z,49.60
2019-03-29T13:06:36.008Z,49.70
2019-03-29T13:09:08.128Z,50.60
2019-03-29T13:11:39.516Z,50.80
2019-03-29T13:14:11.100Z,50.50
2019-03-29T13:16:42.641Z,50.60
2019-03-29T13:19:14.059Z,50.70
2019-03-29T13:21:45.520Z,50.70
2019-03-29T13:24:17.193Z,51.00
2019-03-29T13:26:48.545Z,50.80
2019-03-29T13:29:20.102Z,51.00
2019-03-29T13:31:51.754Z,51.00
2019-03-29T13:34:23.364Z,51.10
2019-03-29T13:36:55.376Z,51.10
2019-03-29T13:39:26.802Z,51.00
2019-03-29T13:41:58.230Z,50.90
2019-03-29T13:44:29.813Z,51.20
2019-03-29T13:47:01.347Z,50.70
2019-03-29T13:49:32.811Z,50.10
2019-03-29T13:52:04.493Z,49.70
2019-03-29T13:54:36.007Z,49.70
2019-03-29T13:57:07.449Z,49.00
2019-03-29T13:59:39.166Z,50.00
2019-03-29T14:02:10.812Z,50.30
2019-03-29T14:04:42.272Z,50.00
2019-03-29T14:07:13.884Z,50.40
2019-03-29T14:09:46.885Z,50.30
2019-03-29T14:12:21.373Z,50.10
2019-03-29T14:14:52.967Z,50.40
2019-03-29T14:17:24.631Z,50.70
2019-03-29T14:19:56.771Z,50.70
2019-03-29T14:22:28.266Z,50.60
2019-03-29T14:24:59.999Z,50.80
2019-03-29T14:27:31.409Z,50.00
2019-03-29T14:30:05.315Z,50.40
2019-03-29T14:32:37.400Z,50.40
2019-03-29T14:35:09.929Z,50.70
2019-03-29T14:37:41.602Z,50.70
2019-03-29T14:40:13.606Z,50.90
2019-03-29T14:42:45.509Z,51.10
2019-03-29T14:45:17.195Z,50.70
2019-03-29T14:47:49.617Z,50.70
2019-03-29T14:50:21.662Z,50.70
2019-03-29T14:52:53.443Z,50.90
2019-03-29T14:55:25.129Z,51.00
2019-03-29T14:57:57.065Z,51.20
2019-03-29T15:00:41.832Z,51.30
2019-03-29T15:03:13.404Z,51.40
2019-03-29T15:05:45.057Z,52.20
2019-03-29T15:08:16.620Z,51.50
2019-03-29T15:10:48.578Z,51.60
2019-03-29T15:13:20.822Z,51.70
2019-03-29T15:15:53.749Z,51.50
2019-03-29T15:18:26.325Z,51.70
2019-03-29T15:20:58.108Z,51.70
2019-03-29T15:23:29.853Z,51.80
2019-03-29T15:26:04.867Z,51.80
2019-03-29T15:28:37.643Z,52.00
2019-03-29T15:31:09.916Z,51.90
2019-03-29T15:33:41.697Z,52.00
2019-03-29T15:36:13.468Z,52.20
2019-03-29T15:38:46.055Z,52.20
2019-03-29T15:41:17.845Z,52.20
2019-03-29T15:43:52.531Z,52.10
2019-03-29T15:46:24.229Z,51.90
2019-03-29T15:48:56.476Z,52.10
2019-03-29T15:51:28.711Z,52.20
2019-03-29T15:54:00.331Z,52.30
2019-03-29T15:56:32.083Z,52.50
2019-03-29T15:59:04.222Z,52.60
2019-03-29T16:01:38.737Z,52.60
2019-03-29T16:04:09.888Z,52.60
2019-03-29T16:06:42.802Z,52.70
2019-03-29T16:09:14.415Z,52.70
2019-03-29T16:11:46.099Z,52.80
2019-03-29T16:14:18.004Z,53.00
2019-03-29T16:16:50.409Z,53.00
2019-03-29T16:19:21.986Z,53.20
2019-03-29T16:21:55.318Z,53.20
2019-03-29T16:24:26.997Z,53.20
2019-03-29T16:26:58.681Z,53.00
2019-03-29T16:29:31.768Z,53.00
2019-03-29T16:32:03.435Z,52.60
2019-03-29T16:34:35.646Z,52.30
2019-03-29T16:37:07.421Z,52.00
2019-03-29T16:39:40.244Z,52.40
2019-03-29T16:42:11.949Z,51.60
2019-03-29T16:44:43.742Z,51.40
2019-03-29T16:47:15.382Z,51.10
2019-03-29T16:49:47.479Z,51.20
2019-03-29T16:52:19.869Z,51.10
2019-03-29T16:54:51.616Z,51.00
2019-03-29T16:57:23.210Z,50.90
2019-03-29T16:59:55.271Z,50.90
2019-03-29T17:02:27.319Z,50.80
2019-03-29T17:04:59.161Z,50.80
2019-03-29T17:07:30.914Z,50.80
2019-03-29T17:10:05.506Z,50.70
2019-03-29T17:12:37.721Z,50.70
2019-03-29T17:15:10.624Z,50.70
2019-03-29T17:17:42.267Z,50.60
2019-03-29T17:20:13.993Z,50.70
2019-03-29T17:22:45.664Z,51.40
2019-03-29T17:25:20.767Z,51.80
2019-03-29T17:27:52.541Z,51.40
2019-03-29T17:30:41.379Z,51.50
2019-03-29T17:33:14.678Z,51.70
2019-03-29T17:35:46.585Z,51.70
2019-03-29T17:38:18.189Z,51.80
2019-03-29T17:40:49.549Z,51.70
2019-03-29T17:43:21.067Z,51.90
2019-03-29T17:45:52.482Z,51.80
2019-03-29T17:48:24.005Z,51.60
2019-03-29T17:50:55.327Z,51.40
2019-03-29T17:53:26.671Z,50.90
2019-03-29T17:55:58.174Z,50.60
2019-03-29T17:58:29.569Z,50.20
2019-03-29T18:01:01.158Z,50.20
2019-03-29T18:03:32.529Z,50.30
2019-03-29T18:06:03.730Z,50.50
2019-03-29T18:08:34.967Z,50.20
2019-03-29T18:11:06.264Z,50.30
2019-03-29T18:13:37.638Z,50.20
2019-03-29T18:16:08.837Z,50.30
2019-03-29T18:18:41.246Z,50.70
2019-03-29T18:21:12.718Z,50.70
2019-03-29T18:23:44.290Z,51.50
2019-03-29T18:26:16.360Z,51.00
2019-03-29T18:28:48.910Z,52.80
2019-03-29T18:31:20.727Z,54.10
2019-03-29T18:33:52.377Z,54.90
2019-03-29T18:36:24.167Z,55.90
2019-03-29T18:38:56.035Z,55.30
2019-03-29T18:41:29.295Z,56.30
2019-03-29T18:44:01.032Z,55.60
2019-03-29T18:46:43.913Z,55.10
2019-03-29T18:49:07.467Z,54.90
2019-03-29T18:51:38.950Z,56.70
2019-03-29T18:54:10.555Z,56.20
2019-03-29T18:56:42.827Z,55.10
2019-03-29T18:59:14.907Z,57.10
2019-03-29T19:01:46.914Z,55.50
2019-03-29T19:04:18.475Z,54.80
2019-03-29T19:06:50.593Z,56.50
2019-03-29T19:09:25.114Z,63.30
2019-03-29T19:12:07.596Z,64.10
2019-03-29T19:14:41.603Z,66.30
2019-03-29T19:17:20.274Z,67.40
2019-03-29T19:19:53.203Z,69.50
2019-03-29T19:22:24.785Z,64.70
2019-03-29T19:24:56.202Z,60.40
2019-03-29T19:27:27.792Z,59.70
2019-03-29T19:29:59.406Z,57.80
2019-03-29T19:32:31.336Z,57.40
2019-03-29T19:35:02.890Z,56.00
2019-03-29T19:37:34.216Z,55.70
2019-03-29T19:40:05.852Z,53.90
2019-03-29T19:42:37.307Z,53.20
2019-03-29T19:45:10.217Z,52.50
2019-03-29T19:47:41.724Z,51.10
2019-03-29T19:50:13.478Z,52.50
2019-03-29T19:52:45.086Z,52.10
2019-03-29T19:55:16.587Z,51.90
2019-03-29T19:57:48.293Z,52.80
2019-03-29T20:00:21.390Z,52.10
2019-03-29T20:02:52.880Z,52.20
2019-03-29T20:05:30.727Z,51.70
2019-03-29T20:08:02.217Z,51.80
2019-03-29T20:10:33.697Z,51.50
2019-03-29T20:13:08.565Z,53.00
2019-03-29T20:15:40.697Z,52.60
2019-03-29T20:18:21.340Z,55.70
2019-03-29T20:20:52.631Z,55.00
2019-03-29T20:23:25.444Z,56.20
2019-03-29T20:25:56.893Z,54.60
2019-03-29T20:28:28.713Z,56.70
2019-03-29T20:31:00.365Z,60.50
2019-03-29T20:33:31.869Z,57.90
2019-03-29T20:36:03.190Z,55.90
2019-03-29T20:38:34.806Z,55.30
2019-03-29T20:41:06.401Z,55.50
2019-03-29T20:43:37.885Z,54.90
2019-03-29T20:46:09.267Z,54.80
2019-03-29T20:48:40.681Z,54.60
2019-03-29T20:51:12.373Z,54.50
2019-03-29T20:53:43.924Z,55.10
2019-03-29T20:56:16.532Z,54.60
2019-03-29T20:58:48.392Z,53.90
2019-03-29T21:01:20.064Z,53.20
2019-03-29T21:03:51.598Z,53.10
2019-03-29T21:06:23.457Z,53.10
2019-03-29T21:08:55.793Z,53.10
2019-03-29T21:11:27.476Z,53.20
2019-03-29T21:14:00.179Z,53.60
2019-03-29T21:16:31.642Z,54.10
2019-03-29T21:19:03.173Z,53.70
2019-03-29T21:21:34.609Z,53.60
2019-03-29T21:24:06.444Z,53.60
2019-03-29T21:26:39.144Z,54.10
2019-03-29T21:29:10.812Z,54.20
2019-03-29T21:31:42.503Z,53.70
2019-03-29T21:34:13.829Z,53.70
2019-03-29T21:36:48.433Z,53.90
2019-03-29T21:39:19.730Z,53.90
2019-03-29T21:41:51.241Z,53.90
2019-03-29T21:44:22.804Z,54.00
2019-03-29T21:46:53.994Z,53.90
2019-03-29T21:49:25.522Z,53.90
2019-03-29T21:51:56.748Z,53.80
2019-03-29T21:54:28.140Z,53.30
2019-03-29T21:56:59.605Z,53.50
2019-03-29T21:59:31.248Z,53.40
2019-03-29T22:02:02.717Z,53.30
2019-03-29T22:04:34.937Z,54.00
2019-03-29T22:07:06.485Z,53.30
2019-03-29T22:09:38.104Z,53.30
2019-03-29T22:12:09.457Z,53.60
2019-03-29T22:14:41.107Z,53.70
2019-03-29T22:17:13.070Z,54.00
2019-03-29T22:19:44.647Z,54.00
2019-03-29T22:22:16.108Z,54.20
2019-03-29T22:24:47.678Z,54.30
2019-03-29T22:27:19.187Z,54.40
2019-03-29T22:29:51.837Z,54.60
2019-03-29T22:32:23.768Z,54.80
2019-03-29T22:34:55.219Z,54.80
2019-03-29T22:37:26.714Z,55.20
2019-03-29T22:39:58.284Z,55.70
2019-03-29T22:42:29.999Z,55.10
2019-03-29T22:45:01.937Z,55.10
2019-03-29T22:47:35.488Z,55.30
2019-03-29T22:50:07.411Z,55.10
2019-03-29T22:52:40.382Z,54.80
2019-03-29T22:55:12.077Z,54.70
2019-03-29T22:57:43.757Z,54.50
2019-03-29T23:00:25.599Z,54.70
2019-03-29T23:02:57.265Z,54.90
2019-03-29T23:05:29.217Z,55.00
2019-03-29T23:08:00.713Z,55.10
2019-03-29T23:10:32.494Z,55.20
2019-03-29T23:13:04.144Z,55.40
2019-03-29T23:15:35.589Z,55.20
2019-03-29T23:18:07.003Z,55.00
2019-03-29T23:20:38.592Z,55.00
2019-03-29T23:23:10.573Z,55.00
2019-03-29T23:25:43.244Z,54.90
2019-03-29T23:28:15.203Z,54.90
2019-03-29T23:30:48.147Z,54.90
2019-03-29T23:33:22.591Z,54.90
2019-03-29T23:35:54.096Z,55.50
2019-03-29T23:38:25.685Z,54.90
2019-03-29T23:40:57.057Z,54.70
2019-03-29T23:43:28.729Z,55.10
2019-03-29T23:46:00.355Z,54.60
2019-03-29T23:48:31.865Z,54.40
2019-03-29T23:51:03.167Z,54.60
2019-03-29T23:53:34.954Z,54.40
2019-03-29T23:56:07.973Z,54.50
2019-03-29T23:58:41.475Z,54.60
